Time;durP1;ratioP1;P1;durP2;ratioP2;P2;SDS_P1;SDS_P2;PMS_P1;PMS_P2;Temp;Humidity;BMP_temperature;BMP_pressure;BME280_temperature;BME280_humidity;BME280_pressure;Samples;Min_cycle;Max_cycle;Signal;HPM_P1;HPM_P2
2024/01/29 00:02:30;;;;;;;;;;;12.50;46.10;;;12.70;48.38;101748.59;5037136;28;19972;-33
2024/01/29 00:04:58;;;;;;;;;;;12.50;45.90;;;12.71;47.63;101740.31;5040100;28;20384;-35
2024/01/29 00:07:27;;;;;;;;;;;12.50;45.80;;;12.75;48.32;101737.56;5043395;28;19925;-35
2024/01/29 00:09:55;;;;;;;;;;;12.60;45.70;;;12.78;47.75;101735.44;5044053;28;19925;-34
2024/01/29 00:12:23;;;;;;;;;;;12.60;45.60;;;12.78;48.14;101730.41;5041997;28;19925;-33
2024/01/29 00:14:51;;;;;;;;;;;12.60;45.60;;;12.78;47.88;101725.38;5035766;28;20074;-32
2024/01/29 00:17:19;;;;;;;;;;;12.60;45.60;;;12.77;47.83;101723.56;5035309;28;19925;-33
2024/01/29 00:19:48;;;;;;;;;;;12.60;45.50;;;12.76;48.29;101720.84;5035624;28;20423;-32
2024/01/29 00:22:16;;;;;;;;;;;12.60;45.50;;;12.71;48.12;101721.84;5035385;28;19932;-39
2024/01/29 00:24:44;;;;;;;;;;;12.60;45.60;;;12.66;48.96;101713.63;5034922;28;19929;-33
2024/01/29 00:27:12;;;;;;;;;;;12.60;45.60;;;12.57;47.79;101712.38;5034500;28;19929;-34
2024/01/29 00:29:40;;;;;;;;;;;12.50;45.70;;;12.56;48.83;101708.03;5035266;28;19932;-34
2024/01/29 00:32:08;;;;;;;;;;;12.50;45.90;;;12.50;48.06;101717.25;5036550;28;19972;-36
2024/01/29 00:34:38;;;;;;;;;;;12.40;45.90;;;12.45;48.61;101710.69;5044831;28;19925;-34
2024/01/29 00:37:08;;;;;;;;;;;12.40;45.90;;;12.41;48.31;101713.44;5043239;28;19932;-33
2024/01/29 00:39:36;;;;;;;;;;;12.30;45.80;;;12.34;49.21;101711.66;5035427;28;19936;-36
2024/01/29 00:42:05;;;;;;;;;;;12.30;45.90;;;12.33;48.96;101714.88;5036100;28;19926;-36
2024/01/29 00:44:33;;;;;;;;;;;12.20;45.90;;;12.29;48.34;101711.72;5038364;28;20439;-35
2024/01/29 00:47:01;;;;;;;;;;;12.20;45.90;;;12.23;48.84;101706.75;5037431;28;19932;-35
2024/01/29 00:49:31;;;;;;;;;;;12.10;45.90;;;12.25;49.08;101712.91;5035440;28;20028;-34
2024/01/29 00:51:59;;;;;;;;;;;12.10;45.90;;;12.22;49.08;101714.06;5037128;28;19925;-31
2024/01/29 00:54:29;;;;;;;;;;;12.10;46.00;;;12.20;49.11;101710.47;5037639;28;19929;-34
2024/01/29 00:56:57;;;;;;;;;;;12.10;46.00;;;12.18;48.40;101701.78;5036327;28;19925;-34
2024/01/29 00:59:25;;;;;;;;;;;12.00;45.90;;;12.15;48.60;101702.25;5036056;28;19926;-34
2024/01/29 01:01:53;;;;;;;;;;;12.00;45.90;;;12.14;48.48;101694.53;5038610;28;20052;-35
2024/01/29 01:04:21;;;;;;;;;;;12.00;46.00;;;12.14;48.80;101704.56;5033299;28;19931;-37
2024/01/29 01:06:49;;;;;;;;;;;12.00;46.00;;;12.14;48.68;101704.56;5033783;28;19929;-34
2024/01/29 01:09:17;;;;;;;;;;;12.00;46.00;;;12.15;49.13;101703.84;5034283;28;19979;-33
2024/01/29 01:11:46;;;;;;;;;;;12.00;46.00;;;12.16;49.21;101703.16;5028932;28;19929;-35
2024/01/29 01:14:14;;;;;;;;;;;12.00;45.90;;;12.17;48.86;101699.97;5036097;28;20017;-34
2024/01/29 01:16:42;;;;;;;;;;;12.00;45.90;;;12.18;48.50;101701.78;5036845;28;19925;-34
2024/01/29 01:19:10;;;;;;;;;;;12.00;45.90;;;12.21;49.01;101702.19;5039042;28;20459;-34
2024/01/29 01:21:38;;;;;;;;;;;12.00;46.50;;;12.23;49.00;101700.81;5039254;28;19971;-32
2024/01/29 01:24:06;;;;;;;;;;;12.00;46.50;;;12.23;48.41;101703.31;5034805;28;19933;-32
2024/01/29 01:26:35;;;;;;;;;;;12.10;45.90;;;12.24;47.97;101697.63;5033132;28;19964;-32
2024/01/29 01:29:05;;;;;;;;;;;12.10;45.90;;;12.30;48.70;101708.53;5033514;28;20286;-35
2024/01/29 01:31:33;;;;;;;;;;;12.10;45.80;;;12.31;48.93;101702.81;5032683;28;20015;-33
2024/01/29 01:34:00;;;;;;;;;;;12.10;45.80;;;12.34;48.11;101710.75;5032607;28;19955;-32
2024/01/29 01:36:29;;;;;;;;;;;12.10;45.80;;;12.37;48.26;101702.06;5032074;28;19972;-32
2024/01/29 01:38:56;;;;;;;;;;;12.20;45.90;;;12.38;48.47;101695.44;5032797;28;19929;-33
2024/01/29 01:41:24;;;;;;;;;;;12.20;45.80;;;12.43;48.88;101707.03;5033261;28;19925;-32
2024/01/29 01:43:52;;;;;;;;;;;12.20;45.90;;;12.46;47.92;101707.44;5032673;28;19931;-33
2024/01/29 01:46:23;;;;;;;;;;;12.30;46.00;;;12.46;48.69;101694.88;5033195;28;19935;-32
2024/01/29 01:48:51;;;;;;;;;;;12.30;45.90;;;12.57;48.30;101701.41;5028138;28;19925;-35
2024/01/29 01:51:20;;;;;;;;;;;12.40;46.00;;;12.64;48.02;101694.94;5041639;28;19925;-33
2024/01/29 01:53:48;;;;;;;;;;;12.40;45.80;;;12.67;47.46;101695.34;5032616;28;19984;-36
2024/01/29 01:56:16;;;;;;;;;;;12.50;45.80;;;12.71;47.67;101702.59;5041084;28;19929;-33
2024/01/29 01:58:45;;;;;;;;;;;12.50;45.60;;;12.75;47.58;101702.34;5039971;28;20347;-34
2024/01/29 02:01:13;;;;;;;;;;;12.60;45.50;;;12.80;47.18;101713.03;5056752;22;19939;-37
2024/01/29 02:03:43;;;;;;;;;;;12.60;45.40;;;12.78;47.66;101705.25;5032433;28;19940;-37
2024/01/29 02:06:11;;;;;;;;;;;12.60;45.40;;;12.80;48.01;101702.97;5032892;28;19929;-35
2024/01/29 02:08:40;;;;;;;;;;;12.60;45.40;;;12.75;48.01;101699.81;5024390;28;20293;-35
2024/01/29 02:11:08;;;;;;;;;;;12.60;45.40;;;12.71;48.01;101706.75;5026095;28;19925;-35
2024/01/29 02:13:36;;;;;;;;;;;12.60;45.40;;;12.64;47.70;101699.03;5012280;28;20012;-35
2024/01/29 02:16:04;;;;;;;;;;;12.50;45.40;;;12.58;48.41;101709.16;5012505;28;20360;-35
2024/01/29 02:18:33;;;;;;;;;;;12.50;45.60;;;12.52;48.40;101697.34;5013909;28;19972;-35
2024/01/29 02:21:02;;;;;;;;;;;12.40;45.50;;;12.47;48.92;101704.22;5019006;28;20241;-35
2024/01/29 02:23:32;;;;;;;;;;;12.40;45.60;;;12.41;49.17;101703.38;5020294;28;19925;-35
2024/01/29 02:26:00;;;;;;;;;;;12.30;45.70;;;12.35;48.02;101702.53;5012907;28;20016;-35
2024/01/29 02:28:28;;;;;;;;;;;12.30;45.90;;;12.31;48.88;101703.72;5013237;28;19925;-36
2024/01/29 02:30:56;;;;;;;;;;;12.20;45.80;;;12.28;48.50;101699.84;5019844;28;19937;-35
2024/01/29 02:33:24;;;;;;;;;;;12.20;45.90;;;12.25;48.50;101699.44;5011689;28;19926;-35
2024/01/29 02:35:52;;;;;;;;;;;12.10;46.50;;;12.21;49.01;101703.09;5012648;28;19933;-35
2024/01/29 02:38:20;;;;;;;;;;;12.10;45.80;;;12.19;48.78;101706.13;5020325;28;19929;-35
2024/01/29 02:40:49;;;;;;;;;;;12.00;45.80;;;12.17;48.85;101704.97;5012750;28;19961;-35
2024/01/29 02:43:17;;;;;;;;;;;12.00;45.90;;;12.13;48.65;101712.81;5020356;28;20012;-35
2024/01/29 02:45:47;;;;;;;;;;;12.00;45.90;;;12.11;48.85;101709.16;5012424;28;19969;-36
2024/01/29 02:48:15;;;;;;;;;;;12.00;45.90;;;12.09;48.65;101722.41;5012757;28;19965;-35
2024/01/29 02:50:43;;;;;;;;;;;11.90;45.80;;;12.07;48.76;101718.78;5015498;28;20293;-35
2024/01/29 02:53:11;;;;;;;;;;;11.90;45.80;;;12.07;48.64;101718.78;5022101;28;20008;-35
2024/01/29 02:55:39;;;;;;;;;;;11.90;45.90;;;12.08;48.67;101720.56;5017221;28;19971;-38
2024/01/29 02:58:08;;;;;;;;;;;11.90;45.80;;;12.09;48.86;101716.47;5015831;28;20479;-35
2024/01/29 03:00:36;;;;;;;;;;;11.90;45.90;;;12.12;48.06;101718.50;5018493;28;19938;-35
2024/01/29 03:03:04;;;;;;;;;;;11.90;45.80;;;12.13;48.14;101713.72;5029648;28;19925;-35
2024/01/29 03:05:32;;;;;;;;;;;11.90;45.80;;;12.14;48.89;101717.13;5015840;28;20036;-35
2024/01/29 03:08:00;;;;;;;;;;;11.90;45.90;;;12.16;48.81;101724.19;5016094;28;19925;-35
2024/01/29 03:10:28;;;;;;;;;;;12.00;45.90;;;12.20;48.74;101720.50;5023944;28;19932;-35
2024/01/29 03:12:57;;;;;;;;;;;12.00;45.90;;;12.23;49.04;101715.91;5017175;28;20078;-35
2024/01/29 03:15:27;;;;;;;;;;;12.00;45.80;;;12.27;48.56;101713.09;5030166;28;19987;-35
2024/01/29 03:17:55;;;;;;;;;;;12.10;45.80;;;12.31;48.27;101715.38;5013050;28;19930;-35
2024/01/29 03:20:24;;;;;;;;;;;12.10;45.70;;;12.31;48.30;101728.84;5024885;28;19929;-35
2024/01/29 03:22:52;;;;;;;;;;;12.10;45.70;;;12.35;47.91;101727.66;5007968;28;19972;-35
2024/01/29 03:25:20;;;;;;;;;;;12.20;45.70;;;12.37;48.66;101738.84;5023751;28;19990;-35
2024/01/29 03:27:48;;;;;;;;;;;12.20;45.70;;;12.40;47.58;101736.75;5016712;28;19933;-35
2024/01/29 03:30:16;;;;;;;;;;;12.20;45.70;;;12.44;48.03;101723.94;5015495;28;19994;-35
2024/01/29 03:32:45;;;;;;;;;;;12.20;45.80;;;12.48;47.68;101731.19;5015301;28;20371;-35
2024/01/29 03:35:13;;;;;;;;;;;12.30;45.80;;;12.56;48.07;101723.13;5016118;28;19926;-35
2024/01/29 03:37:44;;;;;;;;;;;12.30;45.70;;;12.59;48.43;101726.03;5024099;28;20008;-35
2024/01/29 03:40:14;;;;;;;;;;;12.40;45.70;;;12.63;48.14;101728.31;5015825;28;19937;-35
2024/01/29 03:42:42;;;;;;;;;;;12.40;45.60;;;12.66;48.03;101728.72;5014759;28;19926;-35
2024/01/29 03:45:10;;;;;;;;;;;12.50;45.50;;;12.69;48.44;101723.22;5015039;28;20297;-36
2024/01/29 03:47:38;;;;;;;;;;;12.50;45.40;;;12.74;48.41;101728.19;5014930;28;20056;-35
2024/01/29 03:50:08;;;;;;;;;;;12.60;45.30;;;12.75;48.27;101730.00;5015193;28;19925;-35
2024/01/29 03:52:36;;;;;;;;;;;12.60;45.30;;;12.76;48.20;101731.81;5015392;28;19980;-35
2024/01/29 03:55:05;;;;;;;;;;;12.60;45.30;;;12.75;47.51;101730.00;5021474;28;19925;-35
2024/01/29 03:57:35;;;;;;;;;;;12.60;45.20;;;12.72;47.64;101732.06;5022892;28;20388;-35
2024/01/29 04:00:03;;;;;;;;;;;12.60;45.20;;;12.62;48.08;101721.47;5014732;28;19929;-35
2024/01/29 04:02:31;;;;;;;;;;;12.50;45.20;;;12.58;47.87;101724.25;5023961;28;19925;-35
2024/01/29 04:04:59;;;;;;;;;;;12.50;45.40;;;12.51;48.70;101726.59;5014594;28;19937;-35
2024/01/29 04:07:29;;;;;;;;;;;12.40;45.40;;;12.45;48.79;101728.28;5022265;28;20396;-35
2024/01/29 04:09:57;;;;;;;;;;;12.40;45.50;;;12.38;48.45;101728.09;5006646;28;19932;-35
2024/01/29 04:12:25;;;;;;;;;;;12.30;45.60;;;12.32;48.29;101733.19;5013885;28;19932;-35
2024/01/29 04:14:53;;;;;;;;;;;12.20;45.60;;;12.28;48.71;101732.53;5022379;28;20423;-35
2024/01/29 04:17:21;;;;;;;;;;;12.20;45.70;;;12.22;48.90;101729.16;5014748;28;19925;-35
2024/01/29 04:19:49;;;;;;;;;;;12.10;45.70;;;12.19;49.22;101733.75;5017402;28;19969;-35
2024/01/29 04:22:17;;;;;;;;;;;12.10;45.70;;;12.16;48.51;101733.31;5019169;28;20353;-35
2024/01/29 04:24:46;;;;;;;;;;;12.00;45.70;;;12.13;48.98;101737.94;5013478;28;20039;-34
2024/01/29 04:27:14;;;;;;;;;;;12.00;45.80;;;12.09;48.21;101727.44;5015124;28;19926;-37
2024/01/29 04:29:42;;;;;;;;;;;12.00;45.90;;;12.05;48.96;101715.13;5015421;28;20117;-35
2024/01/29 04:32:10;;;;;;;;;;;11.90;45.80;;;12.04;48.72;101728.38;5014577;28;20410;-36
2024/01/29 04:34:38;;;;;;;;;;;11.90;45.80;;;12.02;48.67;101727.25;5015795;28;19994;-37
2024/01/29 04:37:06;;;;;;;;;;;11.90;45.80;;;12.02;48.62;101726.34;5023120;28;19925;-37
2024/01/29 04:39:34;;;;;;;;;;;11.90;45.80;;;12.03;48.57;101731.59;5025353;28;19932;-35
2024/01/29 04:42:03;;;;;;;;;;;11.90;45.80;;;12.05;48.73;101729.31;5016012;28;19930;-35
2024/01/29 04:44:31;;;;;;;;;;;11.90;45.80;;;12.05;48.59;101725.19;5015032;28;20296;-35
2024/01/29 04:46:59;;;;;;;;;;;11.90;45.80;;;12.07;48.67;101716.28;5014822;28;20029;-35
2024/01/29 04:49:27;;;;;;;;;;;11.90;46.40;;;12.12;48.53;101721.03;5014507;28;19973;-35
2024/01/29 04:51:55;;;;;;;;;;;11.90;45.80;;;12.18;48.23;101721.88;5014445;28;19965;-35
2024/01/29 04:54:23;;;;;;;;;;;12.00;45.90;;;12.25;48.18;101727.09;5025413;28;19929;-36
2024/01/29 04:56:51;;;;;;;;;;;12.00;45.80;;;12.28;47.96;101730.00;5016436;28;20021;-36
2024/01/29 04:59:20;;;;;;;;;;;12.10;45.70;;;12.32;48.68;101727.25;5013916;28;19925;-35
2024/01/29 05:01:48;;;;;;;;;;;12.10;45.60;;;12.35;48.57;101722.63;5015315;28;19930;-35
2024/01/29 05:04:16;;;;;;;;;;;12.20;45.60;;;12.39;47.95;101720.75;5012805;28;19929;-36
2024/01/29 05:06:44;;;;;;;;;;;12.20;45.50;;;12.44;48.15;101723.94;5013880;28;19929;-36
2024/01/29 05:09:13;;;;;;;;;;;12.20;45.50;;;12.47;47.81;101725.25;5013767;28;20440;-36
2024/01/29 05:11:41;;;;;;;;;;;12.20;45.50;;;12.51;48.03;101721.56;5020799;28;19968;-35
2024/01/29 05:14:09;;;;;;;;;;;12.20;45.40;;;12.49;48.33;101722.97;5021125;28;19925;-35
2024/01/29 05:16:38;;;;;;;;;;;12.20;45.50;;;12.49;48.04;101717.94;5020926;28;19925;-36
2024/01/29 05:19:07;;;;;;;;;;;12.20;45.60;;;12.48;48.16;101711.09;5013300;28;19992;-36
2024/01/29 05:21:35;;;;;;;;;;;12.20;45.60;;;12.47;47.90;101720.22;5021094;28;19948;-35
2024/01/29 05:24:03;;;;;;;;;;;12.30;45.60;;;12.52;47.92;101723.38;5012708;28;19925;-36
2024/01/29 05:26:31;;;;;;;;;;;12.30;45.50;;;12.54;47.87;101732.03;5013081;28;20404;-36
2024/01/29 05:28:59;;;;;;;;;;;12.40;45.50;;;12.55;48.67;101738.00;5022746;28;19968;-36
2024/01/29 05:31:27;;;;;;;;;;;12.40;45.40;;;12.58;48.63;101736.81;5018051;28;20012;-36
2024/01/29 05:33:56;;;;;;;;;;;12.40;45.30;;;12.61;48.13;101739.75;5026187;28;19926;-36
2024/01/29 05:36:24;;;;;;;;;;;12.50;45.30;;;12.64;47.01;101735.16;5016494;28;20316;-35
2024/01/29 05:38:52;;;;;;;;;;;12.50;45.20;;;12.66;47.56;101733.75;5013473;28;20046;-36
2024/01/29 05:41:20;;;;;;;;;;;12.50;45.20;;;12.67;47.43;101739.69;5012816;28;19925;-35
2024/01/29 05:43:48;;;;;;;;;;;12.50;45.20;;;12.63;47.54;101738.38;5011897;28;19931;-35
2024/01/29 05:46:16;;;;;;;;;;;12.50;45.10;;;12.60;47.27;101742.94;5012942;28;20016;-35
2024/01/29 05:48:44;;;;;;;;;;;12.50;45.20;;;12.53;47.35;101740.28;5028971;28;19928;-35
2024/01/29 05:51:13;;;;;;;;;;;12.50;45.30;;;12.49;48.13;101758.16;5013371;28;19926;-35
2024/01/29 05:53:41;;;;;;;;;;;12.40;45.20;;;12.41;48.05;101753.66;5012104;28;20024;-35
2024/01/29 05:56:09;;;;;;;;;;;12.30;45.30;;;12.36;48.37;101759.66;5013173;28;20013;-35
2024/01/29 05:58:42;;;;;;;;;;;12.30;45.40;;;12.30;47.94;101759.69;5012660;28;20079;-35
2024/01/29 06:01:10;;;;;;;;;;;12.20;45.50;;;12.26;48.10;101756.53;5026839;28;20446;-36
2024/01/29 06:03:38;;;;;;;;;;;12.20;45.60;;;12.21;47.99;101763.41;5014879;28;19933;-35
2024/01/29 06:06:06;;;;;;;;;;;12.10;45.50;;;12.21;48.40;101772.56;5012567;28;19960;-35
2024/01/29 06:08:36;;;;;;;;;;;12.10;45.70;;;12.17;48.50;101765.28;5012582;28;19930;-35
2024/01/29 06:11:04;;;;;;;;;;;12.00;45.60;;;12.15;48.56;101771.69;5013677;28;20020;-35
2024/01/29 06:13:32;;;;;;;;;;;12.00;45.70;;;12.13;48.58;101773.09;5020356;28;19932;-35
2024/01/29 06:16:00;;;;;;;;;;;12.00;45.70;;;12.11;48.17;101769.44;5012680;28;19980;-35
2024/01/29 06:18:28;;;;;;;;;;;11.90;45.60;;;12.09;48.50;101771.72;5012533;28;19932;-35
2024/01/29 06:20:57;;;;;;;;;;;11.90;45.70;;;12.07;48.03;101764.00;5012587;28;19948;-35
2024/01/29 06:23:25;;;;;;;;;;;11.90;45.70;;;12.07;47.99;101766.53;5011658;28;19977;-35
2024/01/29 06:25:55;;;;;;;;;;;11.90;45.70;;;12.05;48.48;101767.91;5016649;28;19981;-36
2024/01/29 06:28:22;;;;;;;;;;;11.90;45.70;;;12.05;49.10;101770.41;5016981;28;20356;-36
2024/01/29 06:30:50;;;;;;;;;;;11.90;45.80;;;12.09;49.00;101772.66;5018112;28;19956;-36
2024/01/29 06:33:18;;;;;;;;;;;11.90;45.80;;;12.15;48.28;101771.69;5021359;28;19926;-35
2024/01/29 06:35:46;;;;;;;;;;;11.90;45.70;;;12.18;48.75;101772.13;5024118;28;19969;-35
2024/01/29 06:38:14;;;;;;;;;;;12.00;45.70;;;12.24;48.34;101760.44;5016489;28;20016;-36
2024/01/29 06:40:43;;;;;;;;;;;12.00;45.70;;;12.26;47.66;101767.50;5016475;28;19932;-36
2024/01/29 06:43:12;;;;;;;;;;;12.00;45.50;;;12.27;48.41;101763.38;5020149;28;20376;-36
2024/01/29 06:45:40;;;;;;;;;;;12.10;45.50;;;12.30;48.34;101769.75;5019450;28;19936;-36
2024/01/29 06:48:08;;;;;;;;;;;12.10;45.40;;;12.34;48.70;101766.06;5016209;28;19930;-36
2024/01/29 06:50:38;;;;;;;;;;;12.10;45.40;;;12.36;47.83;101759.66;5023984;28;20284;-35
2024/01/29 06:53:06;;;;;;;;;;;12.10;45.40;;;12.37;48.10;101766.50;5022543;28;19925;-36
2024/01/29 06:55:34;;;;;;;;;;;12.10;45.40;;;12.39;48.18;101765.13;5023310;28;19926;-36
2024/01/29 06:58:02;;;;;;;;;;;12.10;45.40;;;12.38;47.74;101775.88;5015578;28;19965;-35
2024/01/29 07:00:33;;;;;;;;;;;12.10;45.60;;;12.35;48.20;101778.84;5017048;28;19937;-36
2024/01/29 07:03:01;;;;;;;;;;;12.10;45.60;;;12.37;48.65;101777.47;5025692;28;19925;-36
2024/01/29 07:05:29;;;;;;;;;;;12.20;45.60;;;12.39;48.54;101781.06;5019569;28;19980;-36
2024/01/29 07:07:57;;;;;;;;;;;12.20;45.50;;;12.44;48.32;101784.25;5015025;28;19930;-36
2024/01/29 07:10:25;;;;;;;;;;;12.30;45.40;;;12.46;47.84;101787.88;5014831;28;20421;-36
2024/01/29 07:12:53;;;;;;;;;;;12.30;45.30;;;12.52;47.33;101797.91;5016157;28;19968;-36
2024/01/29 07:15:21;;;;;;;;;;;12.30;45.30;;;12.55;47.37;101790.78;5020608;28;19948;-36
2024/01/29 07:17:51;;;;;;;;;;;12.40;45.20;;;12.59;46.99;101796.44;5023377;28;19948;-36
2024/01/29 07:20:19;;;;;;;;;;;12.40;45.10;;;12.61;47.06;101787.53;5014708;28;20312;-35
2024/01/29 07:22:47;;;;;;;;;;;12.50;45.10;;;12.64;47.32;101789.56;5022241;28;19925;-36
2024/01/29 07:25:14;;;;;;;;;;;12.50;45.00;;;12.64;47.97;101799.63;5014588;28;19932;-36
2024/01/29 07:27:42;;;;;;;;;;;12.50;44.90;;;12.61;46.98;101804.22;5014997;28;19925;-35
2024/01/29 07:30:12;;;;;;;;;;;12.50;45.00;;;12.56;47.77;101808.59;5021877;28;19983;-36
2024/01/29 07:32:40;;;;;;;;;;;12.50;45.00;;;12.52;48.06;101798.78;5014163;28;20008;-36
2024/01/29 07:35:09;;;;;;;;;;;12.40;45.10;;;12.46;47.50;101800.44;5014497;28;20034;-36
2024/01/29 07:37:38;;;;;;;;;;;12.40;45.10;;;12.43;48.14;101802.53;5014574;28;20363;-36
2024/01/29 07:40:09;;;;;;;;;;;12.30;45.10;;;12.36;48.01;101803.28;5006500;28;19930;-35
2024/01/29 07:42:37;;;;;;;;;;;12.30;45.30;;;12.32;48.06;101797.63;5014567;28;19979;-37
2024/01/29 07:45:05;;;;;;;;;;;12.30;45.40;;;12.31;47.65;101806.75;5014429;28;20028;-36
2024/01/29 07:47:33;;;;;;;;;;;12.20;45.40;;;12.29;48.47;101797.16;5022717;28;20011;-36
2024/01/29 07:50:01;;;;;;;;;;;12.10;45.40;;;12.26;48.04;101801.78;5014451;28;19991;-36
2024/01/29 07:52:31;;;;;;;;;;;12.10;46.10;;;12.23;48.34;101798.81;5013736;28;19932;-36
2024/01/29 07:54:59;;;;;;;;;;;12.10;45.50;;;12.05;47.99;101767.91;5013610;28;19977;-36
2024/01/29 07:57:27;;;;;;;;;;;12.10;45.60;;;12.19;48.21;101799.09;5022625;28;20004;-36
2024/01/29 07:59:57;;;;;;;;;;;12.00;45.50;;;12.15;47.74;101801.84;5014018;28;19925;-36
2024/01/29 08:02:25;;;;;;;;;;;12.00;45.60;;;12.15;48.91;101796.81;5052431;22;19925;-37
2024/01/29 08:04:53;;;;;;;;;;;12.00;45.70;;;12.13;47.99;101801.66;5037401;28;19932;-37
2024/01/29 08:07:22;;;;;;;;;;;12.00;45.70;;;12.13;48.96;101799.13;5035397;28;19925;-37
2024/01/29 08:09:51;;;;;;;;;;;11.90;45.70;;;12.12;49.01;101797.31;5035356;28;20364;-37
2024/01/29 08:12:20;;;;;;;;;;;11.90;45.60;;;12.12;48.33;101788.84;5040793;28;19929;-37
2024/01/29 08:14:48;;;;;;;;;;;11.90;45.60;;;12.13;48.03;101798.22;5025485;28;19929;-37
2024/01/29 08:17:16;;;;;;;;;;;11.90;45.70;;;12.13;48.49;101798.22;5030235;28;19947;-37
2024/01/29 08:19:44;;;;;;;;;;;11.90;45.70;;;12.12;48.15;101801.41;5030702;28;19975;-37
2024/01/29 08:22:12;;;;;;;;;;;11.90;46.30;;;12.12;48.61;101802.34;5037471;28;19991;-37
2024/01/29 08:24:40;;;;;;;;;;;11.90;45.70;;;12.14;48.48;101800.94;5036996;28;19972;-37
2024/01/29 08:27:09;;;;;;;;;;;11.90;45.70;;;12.12;48.15;101796.41;5026161;28;19995;-37
2024/01/29 08:29:37;;;;;;;;;;;11.90;45.70;;;12.14;48.01;101795.91;5034738;28;20008;-37
2024/01/29 08:32:06;;;;;;;;;;;11.90;45.70;;;12.08;48.17;101790.91;5033826;28;20008;-37
2024/01/29 08:34:34;;;;;;;;;;;11.90;45.70;;;12.04;48.97;101793.69;5033878;28;20011;-37
2024/01/29 08:37:02;;;;;;;;;;;11.90;45.70;;;12.02;48.74;101790.06;5035570;28;20075;-37
2024/01/29 08:39:30;;;;;;;;;;;11.80;45.80;;;11.98;49.08;101782.78;5034745;28;19929;-37
2024/01/29 08:41:58;;;;;;;;;;;11.80;45.80;;;11.94;48.62;101783.06;5025989;28;19925;-37
2024/01/29 08:44:29;;;;;;;;;;;11.80;45.80;;;11.96;48.35;101781.66;5039575;28;19931;-37
2024/01/29 08:46:57;;;;;;;;;;;11.80;45.90;;;11.95;48.18;101782.34;5036012;28;19980;-37
2024/01/29 08:49:25;;;;;;;;;;;11.80;45.90;;;11.95;48.66;101772.28;5025050;28;20303;-37
2024/01/29 08:51:53;;;;;;;;;;;11.80;45.90;;;11.95;48.74;101774.78;5032992;28;19925;-37
2024/01/29 08:54:20;;;;;;;;;;;11.80;46.00;;;11.96;49.49;101779.13;5032225;28;19977;-37
2024/01/29 08:56:49;;;;;;;;;;;11.80;46.00;;;11.97;49.02;101778.44;5033993;28;19975;-37
2024/01/29 08:59:19;;;;;;;;;;;11.80;46.00;;;11.95;49.11;101777.31;5034326;28;19999;-37
2024/01/29 09:01:48;;;;;;;;;;;11.80;46.10;;;12.01;48.90;101783.19;5049108;28;19978;-37
2024/01/29 09:04:16;;;;;;;;;;;11.80;46.00;;;12.04;48.96;101783.66;5029932;28;20011;-37
2024/01/29 09:06:45;;;;;;;;;;;11.90;46.00;;;12.09;48.53;101781.78;5036763;28;19933;-37
2024/01/29 09:09:13;;;;;;;;;;;11.90;46.00;;;12.12;48.31;101776.28;5025065;28;20399;-37
2024/01/29 09:11:41;;;;;;;;;;;11.90;45.80;;;12.17;48.51;101785.38;5032382;28;19929;-37
2024/01/29 09:14:11;;;;;;;;;;;12.00;45.80;;;12.23;47.73;101783.75;5031822;28;19929;-38
2024/01/29 09:16:39;;;;;;;;;;;12.00;45.70;;;12.28;48.06;101786.22;5041428;28;19980;-36
2024/01/29 09:19:08;;;;;;;;;;;12.10;45.70;;;12.33;47.67;101790.28;5032259;28;20443;-36
2024/01/29 09:21:36;;;;;;;;;;;12.20;45.70;;;12.45;48.25;101793.63;5032638;28;19925;-36
2024/01/29 09:24:06;;;;;;;;;;;12.30;45.50;;;12.57;47.58;101792.84;5032378;28;19925;-36
2024/01/29 09:26:33;;;;;;;;;;;12.40;45.50;;;12.67;48.16;101795.91;5032299;28;19993;-36
2024/01/29 09:29:01;;;;;;;;;;;12.50;45.40;;;12.79;47.58;101797.63;5032231;28;20277;-36
2024/01/29 09:31:29;;;;;;;;;;;12.50;45.30;;;12.93;47.19;101806.19;5032127;28;19971;-36
2024/01/29 09:33:57;;;;;;;;;;;12.60;45.20;;;12.98;47.42;101795.16;5031454;28;19955;-36
2024/01/29 09:36:27;;;;;;;;;;;12.60;45.20;;;12.96;47.63;101799.06;5032323;28;19932;-36
2024/01/29 09:38:58;;;;;;;;;;;12.70;45.30;;;12.93;47.57;101801.16;5032090;28;20434;-36
2024/01/29 09:41:26;;;;;;;;;;;12.70;45.20;;;12.96;47.69;101801.59;5032170;28;19936;-36
2024/01/29 09:43:55;;;;;;;;;;;12.70;45.20;;;12.97;47.23;101809.31;5031878;28;19929;-36
2024/01/29 09:46:24;;;;;;;;;;;12.70;45.20;;;12.88;48.17;101793.88;5032226;28;19932;-36
2024/01/29 09:48:52;;;;;;;;;;;12.70;45.20;;;12.94;47.80;101803.88;5032127;28;19925;-36
2024/01/29 09:51:20;;;;;;;;;;;12.70;45.30;;;12.96;47.47;101806.63;5032614;28;20277;-36
2024/01/29 09:53:50;;;;;;;;;;;12.70;45.30;;;12.96;47.35;101811.66;5031186;28;20466;-36
2024/01/29 09:56:18;;;;;;;;;;;12.70;45.30;;;12.96;47.28;101821.72;5032059;28;19979;-36
2024/01/29 09:58:46;;;;;;;;;;;12.70;45.90;;;12.89;48.16;101808.28;5026261;28;20332;-36
2024/01/29 10:01:14;;;;;;;;;;;12.70;45.30;;;12.98;47.18;101825.34;5038633;28;20032;-36
2024/01/29 10:03:42;;;;;;;;;;;12.70;45.40;;;12.97;47.63;101823.50;5039872;28;19933;-35
2024/01/29 10:06:11;;;;;;;;;;;12.70;45.40;;;12.96;47.59;101829.28;5035832;28;19931;-34
2024/01/29 10:08:39;;;;;;;;;;;12.70;45.40;;;12.95;47.54;101829.97;5036809;28;20438;-35
2024/01/29 10:11:09;;;;;;;;;;;12.70;45.30;;;12.92;47.95;101832.03;5037085;28;19925;-35
2024/01/29 10:13:37;;;;;;;;;;;12.70;45.30;;;12.90;47.28;101832.72;5044307;28;19980;-36
2024/01/29 10:16:05;;;;;;;;;;;12.70;45.40;;;12.88;47.55;101830.72;5049788;28;19944;-36
2024/01/29 10:18:33;;;;;;;;;;;12.70;45.40;;;12.86;47.38;101830.50;5044960;28;19964;-36
2024/01/29 10:21:01;;;;;;;;;;;12.60;45.30;;;12.83;48.11;101835.13;5046005;28;20348;-36
2024/01/29 10:23:31;;;;;;;;;;;12.60;45.50;;;12.82;48.25;101834.88;5033913;28;19983;-36
2024/01/29 10:25:59;;;;;;;;;;;12.60;45.50;;;12.78;47.94;101828.50;5027483;28;20450;-35
2024/01/29 10:28:29;;;;;;;;;;;12.60;45.60;;;12.78;47.89;101823.47;5030968;28;19925;-36
2024/01/29 10:30:58;;;;;;;;;;;12.60;45.70;;;12.77;48.40;101831.69;5036581;28;19975;-36
2024/01/29 10:33:26;;;;;;;;;;;12.60;45.70;;;12.74;48.82;101828.78;5043212;28;19928;-36
2024/01/29 10:35:55;;;;;;;;;;;12.50;45.80;;;12.73;48.35;101831.97;5046561;28;19924;-36
2024/01/29 10:38:23;;;;;;;;;;;12.50;45.90;;;12.72;48.41;101830.16;5040380;28;20019;-36
2024/01/29 10:40:51;;;;;;;;;;;12.50;45.90;;;12.71;48.65;101822.44;5055700;28;19988;-36
2024/01/29 10:43:20;;;;;;;;;;;12.50;46.00;;;12.62;49.23;101806.94;5026773;28;19925;-36
2024/01/29 10:45:51;;;;;;;;;;;12.50;46.10;;;12.68;48.25;101822.88;5034857;28;19925;-36
2024/01/29 10:48:21;;;;;;;;;;;12.50;46.10;;;12.65;48.95;101824.97;5027627;28;19925;-36
2024/01/29 10:50:50;;;;;;;;;;;12.40;46.00;;;12.66;48.48;101829.31;5035477;28;19925;-36
2024/01/29 10:53:18;;;;;;;;;;;12.50;46.20;;;12.64;49.01;101830.72;5030562;28;19925;-36
2024/01/29 10:55:50;;;;;;;;;;;12.50;46.30;;;12.68;48.62;101844.63;5039397;28;20003;-36
2024/01/29 10:58:19;;;;;;;;;;;12.50;46.30;;;12.67;48.82;101823.59;5031838;28;20392;-36
2024/01/29 11:00:47;;;;;;;;;;;12.50;46.30;;;12.69;48.87;101828.84;5039582;28;19925;-36
2024/01/29 11:03:17;;;;;;;;;;;12.50;46.30;;;12.70;48.16;101831.56;5039480;28;19925;-36
2024/01/29 11:05:47;;;;;;;;;;;12.50;46.30;;;12.71;48.98;101823.31;5039364;28;20008;-35
2024/01/29 11:08:18;;;;;;;;;;;12.50;46.30;;;12.68;48.48;101812.84;5033830;28;19985;-37
2024/01/29 11:10:45;;;;;;;;;;;12.50;46.20;;;12.77;48.89;101829.19;5021812;28;19947;-34
2024/01/29 11:13:14;;;;;;;;;;;12.60;46.20;;;12.81;49.00;101831.47;5042433;28;19931;-35
2024/01/29 11:15:42;;;;;;;;;;;12.60;46.20;;;12.84;48.81;101826.84;5034999;28;19931;-35